createdAt,value
2017-10-08T00:00:20.963Z,97844.66
2017-10-08T00:02:49.200Z,97837.45
2017-10-08T00:05:18.211Z,97836.17
2017-10-08T00:07:47.212Z,97834.89
2017-10-08T00:10:15.449Z,97832.80
2017-10-08T00:12:43.698Z,97838.73
2017-10-08T00:15:11.945Z,97834.95
2017-10-08T00:17:40.181Z,97836.22
2017-10-08T00:20:08.449Z,97837.49
2017-10-08T00:22:36.686Z,97842.59
2017-10-08T00:25:04.937Z,97839.57
2017-10-08T00:27:33.933Z,97838.30
2017-10-08T00:30:02.176Z,97839.58
2017-10-08T00:32:30.402Z,97848.03
2017-10-08T00:34:58.649Z,97836.17
2017-10-08T00:37:27.647Z,97831.53
2017-10-08T00:39:55.890Z,97826.42
2017-10-08T00:42:24.126Z,97825.17
2017-10-08T00:44:52.383Z,97817.94
2017-10-08T00:47:20.613Z,97804.33
2017-10-08T00:49:48.856Z,97814.52
2017-10-08T00:52:17.092Z,97820.04
2017-10-08T00:54:46.096Z,97826.41
2017-10-08T00:57:14.339Z,97825.98
2017-10-08T00:59:42.570Z,97817.48
2017-10-08T01:02:10.812Z,97820.03
2017-10-08T01:04:39.807Z,97819.59
2017-10-08T01:07:08.060Z,97820.86
2017-10-08T01:09:36.290Z,97824.69
2017-10-08T01:12:04.537Z,97812.83
2017-10-08T01:14:32.775Z,97812.34
2017-10-08T01:17:01.022Z,97821.27
2017-10-08T01:19:29.254Z,97824.66
2017-10-08T01:21:57.517Z,97818.72
2017-10-08T01:24:26.527Z,97819.12
2017-10-08T01:26:54.767Z,97818.72
2017-10-08T01:29:23.015Z,97815.75
2017-10-08T01:31:51.242Z,97818.74
2017-10-08T01:34:20.249Z,97812.80
2017-10-08T01:36:48.481Z,97825.55
2017-10-08T01:39:16.731Z,97823.86
2017-10-08T01:41:44.962Z,97820.48
2017-10-08T01:44:13.975Z,97818.78
2017-10-08T01:46:42.204Z,97831.13
2017-10-08T01:49:10.438Z,97827.30
2017-10-08T01:51:38.674Z,97840.02
2017-10-08T01:54:07.678Z,97823.05
2017-10-08T01:56:35.977Z,97821.78
2017-10-08T01:59:04.237Z,97819.66
2017-10-08T02:01:32.474Z,97823.48
2017-10-08T02:04:00.714Z,97822.20
2017-10-08T02:06:28.957Z,97832.44
2017-10-08T02:08:57.193Z,97808.63
2017-10-08T02:11:25.435Z,97811.59
2017-10-08T02:13:53.667Z,97809.89
2017-10-08T02:16:22.678Z,97810.33
2017-10-08T02:18:50.914Z,97815.00
2017-10-08T02:21:19.166Z,97826.05
2017-10-08T02:23:47.398Z,97822.20
2017-10-08T02:26:15.646Z,97827.75
2017-10-08T02:28:43.882Z,97825.62
2017-10-08T02:31:12.131Z,97834.09
2017-10-08T02:33:40.369Z,97828.17
2017-10-08T02:36:08.615Z,97834.95
2017-10-08T02:38:36.854Z,97836.69
2017-10-08T02:41:05.110Z,97836.69
2017-10-08T02:43:34.110Z,97842.20
2017-10-08T02:46:03.112Z,97841.34
2017-10-08T02:48:31.353Z,97851.97
2017-10-08T02:50:59.581Z,97845.63
2017-10-08T02:53:27.832Z,97853.24
2017-10-08T02:55:56.060Z,97860.07
2017-10-08T02:58:24.305Z,97851.55
2017-10-08T03:00:52.546Z,97849.85
2017-10-08T03:03:21.551Z,97849.00
2017-10-08T03:05:49.789Z,97851.13
2017-10-08T03:08:18.037Z,97852.41
2017-10-08T03:10:46.270Z,97862.16
2017-10-08T03:13:15.278Z,97873.61
2017-10-08T03:15:43.510Z,97859.61
2017-10-08T03:18:11.749Z,97863.89
2017-10-08T03:20:39.989Z,97864.72
2017-10-08T03:23:09.010Z,97863.02
2017-10-08T03:25:37.252Z,97863.44
2017-10-08T03:28:06.247Z,97864.31
2017-10-08T03:30:35.259Z,97868.98
2017-10-08T03:33:03.499Z,97868.13
2017-10-08T03:35:32.510Z,97866.45
2017-10-08T03:38:01.515Z,97867.30
2017-10-08T03:40:29.763Z,97871.55
2017-10-08T03:42:58.763Z,97868.16
2017-10-08T03:45:27.772Z,97874.98
2017-10-08T03:47:56.006Z,97865.17
2017-10-08T03:50:24.254Z,97876.25
2017-10-08T03:52:52.493Z,97875.41
2017-10-08T03:55:20.740Z,97867.75
2017-10-08T03:57:48.975Z,97860.95
2017-10-08T04:00:17.220Z,97863.50
2017-10-08T04:02:45.455Z,97860.52
2017-10-08T04:05:13.717Z,97868.63
2017-10-08T04:07:41.954Z,97872.42
2017-10-08T04:10:10.193Z,97877.56
2017-10-08T04:12:38.442Z,97874.13
2017-10-08T04:15:06.681Z,97879.23
2017-10-08T04:17:34.927Z,97881.79
2017-10-08T04:20:03.930Z,97877.14
2017-10-08T04:22:32.940Z,97867.80
2017-10-08T04:25:01.179Z,97874.56
2017-10-08T04:27:29.418Z,97867.37
2017-10-08T04:29:57.649Z,97876.27
2017-10-08T04:32:26.662Z,97889.45
2017-10-08T04:34:54.896Z,97877.98
2017-10-08T04:37:23.904Z,97877.14
2017-10-08T04:39:52.914Z,97877.98
2017-10-08T04:42:21.160Z,97880.54
2017-10-08T04:44:49.389Z,97889.01
2017-10-08T04:47:17.637Z,97885.20
2017-10-08T04:49:45.880Z,97891.98
2017-10-08T04:52:14.127Z,97894.56
2017-10-08T04:54:42.366Z,97894.98
2017-10-08T04:57:10.598Z,97884.36
2017-10-08T04:59:38.843Z,97889.03
2017-10-08T05:02:07.078Z,97897.95
2017-10-08T05:04:36.089Z,97897.53
2017-10-08T05:07:04.333Z,97906.03
2017-10-08T05:09:33.344Z,97900.94
2017-10-08T05:12:01.582Z,97904.77
2017-10-08T05:14:29.833Z,97905.20
2017-10-08T05:16:58.068Z,97912.85
2017-10-08T05:19:26.322Z,97921.77
2017-10-08T05:21:54.559Z,97923.06
2017-10-08T05:24:22.801Z,97921.79
2017-10-08T05:26:51.046Z,97934.14
2017-10-08T05:29:19.291Z,97931.59
2017-10-08T05:31:47.543Z,97939.25
2017-10-08T05:34:15.792Z,97933.70
2017-10-08T05:36:44.801Z,97928.61
2017-10-08T05:39:13.034Z,97937.11
2017-10-08T05:41:41.278Z,97938.83
2017-10-08T05:44:10.286Z,97947.75
2017-10-08T05:46:38.529Z,97940.53
2017-10-08T05:49:06.761Z,97946.50
2017-10-08T05:51:35.775Z,97956.27
2017-10-08T05:54:04.009Z,97952.50
2017-10-08T05:56:32.253Z,97956.30
2017-10-08T05:59:00.495Z,97957.16
2017-10-08T06:01:29.505Z,97961.87
2017-10-08T06:03:57.746Z,97973.34
2017-10-08T06:06:25.988Z,97974.19
2017-10-08T06:08:54.232Z,97982.28
2017-10-08T06:11:22.476Z,97981.45
2017-10-08T06:13:51.473Z,97984.85
2017-10-08T06:16:20.485Z,97986.16
2017-10-08T06:18:48.731Z,97987.86
2017-10-08T06:21:16.977Z,97989.98
2017-10-08T06:23:45.734Z,97995.95
2017-10-08T06:26:14.039Z,97999.75
2017-10-08T06:28:42.321Z,98004.48
2017-10-08T06:31:10.567Z,98004.47
2017-10-08T06:33:38.814Z,98010.42
2017-10-08T06:36:07.826Z,98015.53
2017-10-08T06:38:36.076Z,98015.94
2017-10-08T06:41:05.077Z,98019.78
2017-10-08T06:43:33.329Z,98017.25
2017-10-08T06:46:01.574Z,98013.87
2017-10-08T06:48:30.596Z,98013.51
2017-10-08T06:50:58.837Z,98017.29
2017-10-08T06:53:27.856Z,98017.28
2017-10-08T06:55:56.101Z,98016.50
2017-10-08T06:58:24.355Z,98022.03
2017-10-08T07:00:52.594Z,98028.81
2017-10-08T07:03:20.840Z,98021.59
2017-10-08T07:05:49.085Z,98024.63
2017-10-08T07:08:17.334Z,98024.19
2017-10-08T07:10:46.341Z,98027.63
2017-10-08T07:13:14.606Z,98022.97
2017-10-08T07:15:42.857Z,98035.34
2017-10-08T07:18:11.109Z,98028.09
2017-10-08T07:20:39.429Z,98029.00
2017-10-08T07:23:08.449Z,98023.03
2017-10-08T07:25:36.701Z,98023.45
2017-10-08T07:28:05.709Z,98025.57
2017-10-08T07:30:33.962Z,98034.52
2017-10-08T07:33:02.999Z,98040.46
2017-10-08T07:35:31.228Z,98041.33
2017-10-08T07:38:00.250Z,98045.19
2017-10-08T07:40:28.507Z,98048.59
2017-10-08T07:42:57.528Z,98058.84
2017-10-08T07:45:25.771Z,98063.50
2017-10-08T07:47:54.787Z,98057.97
2017-10-08T07:50:23.035Z,98054.14
2017-10-08T07:52:52.054Z,98062.64
2017-10-08T07:55:20.302Z,98074.16
2017-10-08T07:57:49.322Z,98079.30
2017-10-08T08:00:17.565Z,98078.40
2017-10-08T08:02:46.585Z,98071.64
2017-10-08T08:05:14.874Z,98076.77
2017-10-08T08:07:43.114Z,98075.48
2017-10-08T08:10:12.136Z,98078.45
2017-10-08T08:12:40.385Z,98071.64
2017-10-08T08:15:09.406Z,98074.64
2017-10-08T08:17:37.686Z,98078.47
2017-10-08T08:20:05.917Z,98090.84
2017-10-08T08:22:34.170Z,98090.39
2017-10-08T08:25:03.925Z,98097.64
2017-10-08T08:27:32.178Z,98090.38
2017-10-08T08:30:00.421Z,98086.13
2017-10-08T08:32:28.683Z,98082.31
2017-10-08T08:34:56.947Z,98096.78
2017-10-08T08:37:25.202Z,98107.02
2017-10-08T08:39:53.449Z,98113.84
2017-10-08T08:42:21.705Z,98115.13
2017-10-08T08:44:49.949Z,98110.45
2017-10-08T08:47:18.209Z,98101.92
2017-10-08T08:49:46.457Z,98109.16
2017-10-08T08:52:15.486Z,98109.98
2017-10-08T08:54:43.730Z,98109.04
2017-10-08T08:57:12.753Z,98110.80
2017-10-08T08:59:41.002Z,98110.77
2017-10-08T09:02:10.027Z,98113.75
2017-10-08T09:04:38.269Z,98113.63
2017-10-08T09:07:07.286Z,98123.09
2017-10-08T09:09:35.537Z,98117.08
2017-10-08T09:12:04.563Z,98113.99
2017-10-08T09:14:32.813Z,98121.75
2017-10-08T09:17:01.850Z,98123.48
2017-10-08T09:19:30.086Z,98117.91
2017-10-08T09:21:59.103Z,98116.14
2017-10-08T09:24:27.347Z,98118.12
2017-10-08T09:26:56.368Z,98119.42
2017-10-08T09:29:24.613Z,98115.17
2017-10-08T09:31:53.625Z,98119.30
2017-10-08T09:34:21.869Z,98118.32
2017-10-08T09:36:50.119Z,98117.77
2017-10-08T09:39:18.369Z,98131.41
2017-10-08T09:41:47.383Z,98127.89
2017-10-08T09:44:15.634Z,98130.94
2017-10-08T09:46:44.641Z,98131.41
2017-10-08T09:49:12.909Z,98116.00
2017-10-08T09:51:41.158Z,98131.09
2017-10-08T09:54:09.417Z,98142.66
2017-10-08T09:56:37.666Z,98142.02
2017-10-08T09:59:05.915Z,98142.33
2017-10-08T10:01:34.153Z,98150.82
2017-10-08T10:04:02.413Z,98151.08
2017-10-08T10:06:30.654Z,98152.34
2017-10-08T10:08:58.923Z,98145.89
2017-10-08T10:11:27.170Z,98150.05
2017-10-08T10:13:56.186Z,98150.84
2017-10-08T10:16:24.437Z,98149.70
2017-10-08T10:18:53.449Z,98148.94
2017-10-08T10:21:21.697Z,98151.05
2017-10-08T10:23:49.951Z,98146.34
2017-10-08T10:26:18.201Z,98138.35
2017-10-08T10:28:46.464Z,98146.05
2017-10-08T10:31:14.700Z,98149.06
2017-10-08T10:33:42.953Z,98154.66
2017-10-08T10:36:11.202Z,98165.34
2017-10-08T10:38:39.454Z,98157.25
2017-10-08T10:41:07.701Z,98154.22
2017-10-08T10:43:35.957Z,98161.47
2017-10-08T10:46:04.206Z,98150.31
2017-10-08T10:48:32.454Z,98148.52
2017-10-08T10:51:00.704Z,98148.07
2017-10-08T10:53:28.952Z,98144.72
2017-10-08T10:55:57.194Z,98140.14
2017-10-08T10:58:25.441Z,98137.59
2017-10-08T11:00:54.453Z,98144.31
2017-10-08T11:03:22.703Z,98140.58
2017-10-08T11:05:51.710Z,98143.70
2017-10-08T11:08:20.730Z,98130.96
2017-10-08T11:10:48.984Z,98139.91
2017-10-08T11:13:17.231Z,98138.89
2017-10-08T11:15:45.478Z,98139.52
2017-10-08T11:18:18.294Z,98139.05
2017-10-08T11:20:49.776Z,98141.09
2017-10-08T11:23:40.104Z,98141.75
2017-10-08T11:26:09.216Z,98138.07
2017-10-08T11:28:37.595Z,98148.20
2017-10-08T11:31:06.877Z,98154.49
2017-10-08T11:33:35.987Z,98142.92
2017-10-08T11:36:04.329Z,98134.97
2017-10-08T11:38:39.515Z,98146.25
2017-10-08T11:44:33.613Z,98135.64
2017-10-08T11:47:04.466Z,98135.69
2017-10-08T11:49:33.612Z,98125.25
2017-10-08T11:52:01.936Z,98128.16
2017-10-08T11:54:30.985Z,98125.86
2017-10-08T11:57:00.173Z,98122.43
2017-10-08T11:59:28.538Z,98129.98
2017-10-08T12:01:56.945Z,98131.27
2017-10-08T12:04:26.095Z,98124.59
2017-10-08T12:06:54.443Z,98119.48
2017-10-08T12:09:23.539Z,98118.38
2017-10-08T12:11:52.660Z,98119.11
2017-10-08T12:14:20.998Z,98109.27
2017-10-08T12:16:49.377Z,98118.69
2017-10-08T12:19:17.738Z,98121.67
2017-10-08T12:21:46.118Z,98116.55
2017-10-08T12:24:14.422Z,98108.67
2017-10-08T12:26:43.521Z,98114.70
2017-10-08T12:29:11.813Z,98117.18
2017-10-08T12:31:40.829Z,98108.71
2017-10-08T12:34:09.070Z,98111.30
2017-10-08T12:36:37.319Z,98101.34
2017-10-08T12:39:05.557Z,98108.33
2017-10-08T12:41:33.810Z,98107.08
2017-10-08T12:44:02.818Z,98108.37
2017-10-08T12:46:31.077Z,98118.16
2017-10-08T12:49:00.096Z,98111.66
2017-10-08T12:51:28.331Z,98102.72
2017-10-08T12:53:56.581Z,98096.88
2017-10-08T12:56:24.832Z,98101.55
2017-10-08T12:58:53.083Z,98104.39
2017-10-08T13:01:21.331Z,98100.25
2017-10-08T13:03:49.576Z,98109.20
2017-10-08T13:06:17.826Z,98106.58
2017-10-08T13:08:46.082Z,98108.84
2017-10-08T13:11:14.327Z,98111.39
2017-10-08T13:13:42.579Z,98112.59
2017-10-08T13:16:10.822Z,98119.41
2017-10-08T13:18:39.075Z,98119.06
2017-10-08T13:21:08.087Z,98119.73
2017-10-08T13:23:36.347Z,98125.36
2017-10-08T13:26:05.358Z,98122.88
2017-10-08T13:28:33.612Z,98118.73
2017-10-08T13:31:01.871Z,98114.55
2017-10-08T13:33:30.131Z,98123.05
2017-10-08T13:35:58.377Z,98111.42
2017-10-08T13:38:26.618Z,98111.45
2017-10-08T13:40:54.878Z,98117.34
2017-10-08T13:43:23.135Z,98107.16
2017-10-08T13:45:51.392Z,98106.30
2017-10-08T13:48:19.653Z,98116.08
2017-10-08T13:50:47.899Z,98111.78
2017-10-08T13:53:16.145Z,98113.08
2017-10-08T13:55:44.399Z,98119.17
2017-10-08T13:58:12.646Z,98122.59
2017-10-08T14:00:40.897Z,98117.85
2017-10-08T14:03:09.146Z,98119.23
2017-10-08T14:05:37.394Z,98113.13
2017-10-08T14:08:05.653Z,98122.86
2017-10-08T14:10:33.903Z,98120.84
2017-10-08T14:13:02.142Z,98124.30
2017-10-08T14:15:30.411Z,98115.70
2017-10-08T14:17:58.653Z,98117.73
2017-10-08T14:20:26.901Z,98112.27
2017-10-08T14:22:55.151Z,98116.99
2017-10-08T14:25:23.394Z,98117.38
2017-10-08T14:27:51.650Z,98117.00
2017-10-08T14:30:19.896Z,98122.59
2017-10-08T14:32:48.901Z,98118.39
2017-10-08T14:35:17.141Z,98122.76
2017-10-08T14:37:45.391Z,98121.09
2017-10-08T14:40:13.639Z,98125.46
2017-10-08T14:42:41.893Z,98119.56
2017-10-08T14:45:10.898Z,98110.63
2017-10-08T14:47:39.147Z,98119.50
2017-10-08T14:50:08.158Z,98119.00
2017-10-08T14:52:36.434Z,98125.72
2017-10-08T14:55:04.685Z,98126.00
2017-10-08T14:57:32.947Z,98139.77
2017-10-08T15:00:01.195Z,98135.80
2017-10-08T15:02:29.444Z,98138.03
2017-10-08T15:04:57.694Z,98141.97
2017-10-08T15:07:26.706Z,98147.90
2017-10-08T15:09:54.955Z,98156.92
2017-10-08T15:12:23.205Z,98162.11
2017-10-08T15:14:51.453Z,98159.55
2017-10-08T15:17:19.713Z,98162.98
2017-10-08T15:19:47.979Z,98171.09
2017-10-08T15:22:16.231Z,98172.38
2017-10-08T15:24:45.253Z,98180.48
2017-10-08T15:27:13.494Z,98166.43
2017-10-08T15:29:41.783Z,98173.67
2017-10-08T15:32:10.781Z,98171.52
2017-10-08T15:34:39.074Z,98177.09
2017-10-08T15:37:07.322Z,98183.92
2017-10-08T15:39:36.354Z,98174.11
2017-10-08T15:42:04.627Z,98179.23
2017-10-08T15:44:32.865Z,98190.42
2017-10-08T15:47:01.894Z,98184.02
2017-10-08T15:49:30.146Z,98195.20
2017-10-08T15:51:59.172Z,98199.89
2017-10-08T15:54:38.091Z,98207.16
2017-10-08T15:57:20.393Z,98204.59
2017-10-08T15:59:50.641Z,98213.11
2017-10-08T16:02:19.026Z,98224.20
2017-10-08T16:04:49.378Z,98228.90
2017-10-08T16:07:18.586Z,98222.92
2017-10-08T16:09:47.557Z,98232.75
2017-10-08T16:12:15.941Z,98238.71
2017-10-08T16:14:44.294Z,98229.30
2017-10-08T16:17:14.174Z,98237.89
2017-10-08T16:19:42.531Z,98234.94
2017-10-08T16:22:11.999Z,98237.48
2017-10-08T16:24:41.512Z,98237.94
2017-10-08T16:27:09.813Z,98233.66
2017-10-08T16:29:38.112Z,98246.50
2017-10-08T16:32:07.158Z,98242.66
2017-10-08T16:34:36.587Z,98248.20
2017-10-08T16:37:04.964Z,98246.94
2017-10-08T16:39:43.029Z,98250.78
2017-10-08T16:42:22.085Z,98256.34
2017-10-08T16:44:50.504Z,98253.34
2017-10-08T16:47:18.775Z,98259.75
2017-10-08T16:49:47.058Z,98263.15
2017-10-08T16:52:23.581Z,98263.58
2017-10-08T16:54:51.941Z,98270.40
2017-10-08T16:57:21.075Z,98279.80
2017-10-08T16:59:49.394Z,98278.51
2017-10-08T17:02:18.502Z,98284.08
2017-10-08T17:04:47.589Z,98279.36
2017-10-08T17:07:16.664Z,98284.48
2017-10-08T17:09:45.746Z,98279.78
2017-10-08T17:12:14.042Z,98283.20
2017-10-08T17:14:44.560Z,98289.60
2017-10-08T17:17:17.350Z,98300.72
2017-10-08T17:26:16.159Z,98307.52
2017-10-08T17:28:44.545Z,98309.65
2017-10-08T17:31:12.877Z,98313.50
2017-10-08T17:33:41.181Z,98311.79
2017-10-08T17:36:09.505Z,98313.92
2017-10-08T17:38:38.624Z,98314.38
2017-10-08T17:41:06.972Z,98315.63
2017-10-08T17:43:37.139Z,98324.15
2017-10-08T17:46:05.486Z,98325.86
2017-10-08T17:48:34.578Z,98330.13
2017-10-08T17:51:03.589Z,98333.11
2017-10-08T17:53:31.853Z,98333.56
2017-10-08T17:56:00.101Z,98334.40
2017-10-08T17:58:28.353Z,98337.81
2017-10-08T18:00:56.602Z,98348.06
2017-10-08T18:03:24.854Z,98343.36
2017-10-08T18:05:53.102Z,98341.23
2017-10-08T18:08:21.349Z,98345.95
2017-10-08T18:10:49.598Z,98345.95
2017-10-08T18:13:17.853Z,98353.63
2017-10-08T18:15:46.954Z,98354.48
2017-10-08T18:18:15.213Z,98363.03
2017-10-08T18:20:44.225Z,98360.45
2017-10-08T18:23:12.471Z,98368.56
2017-10-08T18:25:40.726Z,98365.56
2017-10-08T18:28:08.978Z,98374.09
2017-10-08T18:30:37.276Z,98368.48
2017-10-08T18:33:05.531Z,98371.89
2017-10-08T18:35:33.780Z,98369.27
2017-10-08T18:38:02.041Z,98368.42
2017-10-08T18:40:31.057Z,98368.84
2017-10-08T18:42:59.300Z,98372.20
2017-10-08T18:45:27.592Z,98373.47
2017-10-08T18:47:55.836Z,98370.06
2017-10-08T18:50:24.877Z,98372.97
2017-10-08T18:52:53.142Z,98372.97
2017-10-08T18:55:21.434Z,98380.63
2017-10-08T18:57:49.684Z,98384.45
2017-10-08T19:00:17.937Z,98381.47
2017-10-08T19:02:46.184Z,98386.98
2017-10-08T19:05:14.441Z,98381.84
2017-10-08T19:07:42.693Z,98379.31
2017-10-08T19:10:10.980Z,98380.98
2017-10-08T19:12:39.293Z,98385.21
2017-10-08T19:15:08.308Z,98377.56
2017-10-08T19:17:37.357Z,98384.87
2017-10-08T19:20:05.615Z,98387.44
2017-10-08T19:22:33.867Z,98389.95
2017-10-08T19:25:02.118Z,98395.89
2017-10-08T19:27:30.382Z,98394.53
2017-10-08T19:29:58.666Z,98394.51
2017-10-08T19:32:26.917Z,98401.34
2017-10-08T19:34:55.186Z,98394.14
2017-10-08T19:37:24.212Z,98396.31
2017-10-08T19:39:52.486Z,98395.44
2017-10-08T19:42:20.727Z,98395.44
2017-10-08T19:44:49.022Z,98397.94
2017-10-08T19:47:17.270Z,98396.23
2017-10-08T19:49:45.526Z,98394.96
2017-10-08T19:52:13.772Z,98396.23
2017-10-08T19:54:42.022Z,98397.97
2017-10-08T19:57:10.273Z,98408.05
2017-10-08T19:59:38.530Z,98412.77
2017-10-08T20:02:07.543Z,98411.95
2017-10-08T20:04:35.950Z,98413.62
2017-10-08T20:07:04.240Z,98422.89
2017-10-08T20:09:32.598Z,98419.09
2017-10-08T20:12:00.842Z,98419.91
2017-10-08T20:14:29.867Z,98424.69
2017-10-08T20:16:58.123Z,98422.01
2017-10-08T20:19:26.382Z,98421.62
2017-10-08T20:21:55.465Z,98424.10
2017-10-08T20:24:24.525Z,98424.98
2017-10-08T20:26:52.905Z,98423.28
2017-10-08T20:29:21.156Z,98425.41
2017-10-08T20:31:49.398Z,98427.97
2017-10-08T20:34:18.585Z,98424.95
2017-10-08T20:36:47.606Z,98430.45
2017-10-08T20:39:15.853Z,98426.23
2017-10-08T20:41:44.103Z,98429.28
2017-10-08T20:44:12.374Z,98427.97
2017-10-08T20:46:40.628Z,98424.06
2017-10-08T20:49:08.934Z,98428.33
2017-10-08T20:51:37.186Z,98433.44
2017-10-08T20:54:05.442Z,98439.39
2017-10-08T20:56:33.743Z,98434.75
2017-10-08T20:59:02.015Z,98436.88
2017-10-08T21:01:30.315Z,98439.47
2017-10-08T21:03:59.381Z,98439.50
2017-10-08T21:06:27.630Z,98439.08
2017-10-08T21:08:55.883Z,98447.13
2017-10-08T21:11:24.901Z,98447.55
2017-10-08T21:13:53.229Z,98446.63
2017-10-08T21:16:21.485Z,98449.65
2017-10-08T21:18:49.742Z,98447.45
2017-10-08T21:21:18.003Z,98449.61
2017-10-08T21:23:47.115Z,98448.83
2017-10-08T21:26:15.365Z,98447.48
2017-10-08T21:28:44.369Z,98445.28
2017-10-08T21:31:12.626Z,98447.02
2017-10-08T21:33:41.709Z,98447.88
2017-10-08T21:36:14.516Z,98450.92
2017-10-08T21:38:42.767Z,98455.53
2017-10-08T21:41:11.786Z,98463.63
2017-10-08T21:43:40.057Z,98458.05
2017-10-08T21:46:08.320Z,98459.33
2017-10-08T21:48:37.319Z,98466.14
2017-10-08T21:51:06.363Z,98456.73
2017-10-08T21:53:35.410Z,98459.29
2017-10-08T21:56:03.689Z,98465.20
2017-10-08T21:58:31.939Z,98464.36
2017-10-08T22:01:00.216Z,98470.70
2017-10-08T22:03:28.543Z,98470.23
2017-10-08T22:05:56.791Z,98463.89
2017-10-08T22:08:25.834Z,98468.06
2017-10-08T22:10:54.087Z,98464.23
2017-10-08T22:13:22.394Z,98467.21
2017-10-08T22:15:50.646Z,98468.19
2017-10-08T22:18:18.897Z,98468.87
2017-10-08T22:20:47.159Z,98471.42
2017-10-08T22:23:16.165Z,98471.42
2017-10-08T22:25:44.426Z,98476.23
2017-10-08T22:28:13.450Z,98480.15
2017-10-08T22:30:41.686Z,98479.59
2017-10-08T22:33:10.699Z,98481.26
2017-10-08T22:35:38.953Z,98474.77
2017-10-08T22:38:08.061Z,98474.31
2017-10-08T22:40:36.493Z,98474.35
2017-10-08T22:43:04.722Z,98478.14
2017-10-08T22:45:32.971Z,98474.73
2017-10-08T22:48:01.212Z,98469.20
2017-10-08T22:50:29.512Z,98472.17
2017-10-08T22:52:57.750Z,98465.76
2017-10-08T22:55:26.040Z,98469.63
2017-10-08T22:57:54.274Z,98472.61
2017-10-08T23:00:23.276Z,98470.53
2017-10-08T23:02:51.527Z,98478.09
2017-10-08T23:05:20.530Z,98472.95
2017-10-08T23:07:49.540Z,98466.59
2017-10-08T23:10:17.781Z,98471.71
2017-10-08T23:12:46.802Z,98478.90
2017-10-08T23:15:15.043Z,98475.88
2017-10-08T23:17:43.293Z,98479.70
2017-10-08T23:20:12.298Z,98480.17
2017-10-08T23:22:40.548Z,98480.09
2017-10-08T23:25:08.791Z,98482.22
2017-10-08T23:27:37.045Z,98481.38
2017-10-08T23:30:06.055Z,98474.98
2017-10-08T23:32:34.308Z,98479.24
2017-10-08T23:35:02.541Z,98479.24
2017-10-08T23:37:31.563Z,98481.80
2017-10-08T23:39:59.802Z,98478.81
2017-10-08T23:42:28.055Z,98478.39
2017-10-08T23:44:56.299Z,98483.02
2017-10-08T23:47:24.545Z,98483.02
2017-10-08T23:49:52.794Z,98485.14
2017-10-08T23:52:21.050Z,98476.64
2017-10-08T23:54:49.289Z,98478.24
2017-10-08T23:57:17.545Z,98484.63
2017-10-08T23:59:45.795Z,98484.24
